Time,TemperatureF,DewpointF,PressureIn,WindDirection,WindDirectionDegrees,WindSpeedMPH,WindSpeedGustMPH,Humidity,HourlyPrecipIn,Conditions,Clouds,dailyrainin,SoftwareType,DateUTC
2013-02-27 00:02:00,38.0,37.0,29.65,SSE,165,1.0,2.0,97,0.00,,,1.52,,2013-02-27 05:02:00,
2013-02-27 00:12:00,38.0,37.0,29.65,SSE,165,1.0,2.0,97,0.00,,,1.52,,2013-02-27 05:12:00,
2013-02-27 00:22:00,38.0,37.0,29.65,SSW,206,1.0,2.0,97,0.00,,,1.52,,2013-02-27 05:22:00,
2013-02-27 00:32:00,38.0,37.0,29.65,SW,235,3.0,5.0,97,0.00,,,1.52,,2013-02-27 05:32:00,
2013-02-27 00:42:00,38.0,37.0,29.65,SW,235,3.0,5.0,97,0.00,,,1.52,,2013-02-27 05:42:00,
2013-02-27 00:52:00,38.0,37.0,29.65,SW,214,2.0,4.0,97,0.00,,,1.52,,2013-02-27 05:52:00,
2013-02-27 01:02:00,38.0,37.0,29.65,WSW,240,3.0,4.0,97,0.00,,,1.52,,2013-02-27 06:02:00,
2013-02-27 01:11:00,38.0,37.0,29.65,WSW,240,3.0,4.0,97,0.00,,,1.52,,2013-02-27 06:11:00,
2013-02-27 01:22:00,38.0,37.0,29.66,WSW,239,4.0,7.0,98,0.00,,,1.52,,2013-02-27 06:22:00,
2013-02-27 01:33:00,38.0,37.0,29.67,WSW,244,4.0,6.0,98,0.00,,,1.52,,2013-02-27 06:33:00,
2013-02-27 01:42:00,38.0,37.0,29.67,WSW,244,4.0,6.0,98,0.00,,,1.52,,2013-02-27 06:42:00,
2013-02-27 01:52:00,38.0,37.0,29.67,WSW,254,5.0,8.0,98,0.00,,,1.52,,2013-02-27 06:52:00,
2013-02-27 02:01:00,38.0,37.0,29.66,WSW,253,3.0,6.0,98,0.00,,,1.52,,2013-02-27 07:01:00,
2013-02-27 02:12:00,38.0,37.0,29.66,WSW,253,3.0,6.0,98,0.00,,,1.52,,2013-02-27 07:12:00,
2013-02-27 02:21:00,37.0,36.0,29.66,SW,228,4.0,7.0,98,0.00,,,1.52,,2013-02-27 07:21:00,
2013-02-27 02:32:00,37.0,36.0,29.66,SW,232,3.0,7.0,98,0.00,,,1.52,,2013-02-27 07:32:00,
2013-02-27 02:42:00,37.0,36.0,29.66,SW,232,3.0,7.0,98,0.00,,,1.52,,2013-02-27 07:42:00,
2013-02-27 02:52:00,37.0,36.0,29.66,SSW,213,3.0,6.0,98,0.00,,,1.52,,2013-02-27 07:52:00,
2013-02-27 03:01:00,37.0,36.0,29.66,WSW,250,2.0,5.0,98,0.00,,,1.52,,2013-02-27 08:01:00,
2013-02-27 03:11:00,37.0,36.0,29.66,WSW,250,2.0,5.0,98,0.00,,,1.52,,2013-02-27 08:11:00,
2013-02-27 03:21:00,37.0,36.0,29.65,SW,221,3.0,5.0,98,0.00,,,1.52,,2013-02-27 08:21:00,
2013-02-27 03:32:00,37.0,36.0,29.65,WSW,251,3.0,6.0,98,0.00,,,1.52,,2013-02-27 08:32:00,
2013-02-27 03:42:00,37.0,36.0,29.65,WSW,251,3.0,6.0,98,0.00,,,1.52,,2013-02-27 08:42:00,
2013-02-27 03:53:00,37.0,36.0,29.66,SW,233,4.0,7.0,98,0.00,,,1.52,,2013-02-27 08:53:00,
2013-02-27 04:02:00,37.0,36.0,29.66,WSW,257,6.0,9.0,98,0.00,,,1.52,,2013-02-27 09:02:00,
2013-02-27 04:12:00,37.0,36.0,29.66,WSW,257,6.0,9.0,98,0.00,,,1.52,,2013-02-27 09:12:00,
2013-02-27 04:22:00,36.0,35.0,29.66,SW,227,6.0,9.0,98,0.00,,,1.52,,2013-02-27 09:22:00,
2013-02-27 04:32:00,36.0,35.0,29.67,WSW,242,5.0,9.0,98,0.00,,,1.52,,2013-02-27 09:32:00,
2013-02-27 04:41:00,36.0,35.0,29.67,WSW,242,5.0,9.0,98,0.00,,,1.52,,2013-02-27 09:41:00,
2013-02-27 04:52:00,36.0,35.0,29.67,SW,236,4.0,7.0,98,0.00,,,1.52,,2013-02-27 09:52:00,
2013-02-27 05:01:00,36.0,35.0,29.68,WSW,258,5.0,6.0,98,0.00,,,1.52,,2013-02-27 10:01:00,
2013-02-27 05:12:00,36.0,35.0,29.68,WSW,258,5.0,6.0,98,0.00,,,1.52,,2013-02-27 10:12:00,
2013-02-27 05:22:00,35.0,34.0,29.69,West,267,4.0,8.0,98,0.00,,,1.51,,2013-02-27 10:22:00,
2013-02-27 05:32:00,35.0,34.0,29.70,West,272,4.0,6.0,98,0.00,,,1.51,,2013-02-27 10:32:00,
2013-02-27 05:42:00,35.0,34.0,29.70,West,272,4.0,6.0,98,0.00,,,1.51,,2013-02-27 10:42:00,
2013-02-27 05:53:00,35.0,34.0,29.71,WSW,248,4.0,8.0,98,0.00,,,1.51,,2013-02-27 10:53:00,
2013-02-27 06:02:00,35.0,34.0,29.71,WSW,249,3.0,5.0,98,0.00,,,1.51,,2013-02-27 11:02:00,
2013-02-27 06:12:00,35.0,34.0,29.71,WSW,249,3.0,5.0,98,0.00,,,1.51,,2013-02-27 11:12:00,
2013-02-27 06:22:00,35.0,34.0,29.71,West,274,1.0,4.0,98,0.00,,,1.49,,2013-02-27 11:22:00,
2013-02-27 06:32:00,36.0,35.0,29.71,West,278,1.0,4.0,98,0.00,,,1.49,,2013-02-27 11:32:00,
2013-02-27 06:42:00,36.0,35.0,29.71,West,278,1.0,4.0,98,0.00,,,1.49,,2013-02-27 11:42:00,
2013-02-27 06:52:00,35.0,34.0,29.72,WSW,254,2.0,3.0,98,0.00,,,1.49,,2013-02-27 11:52:00,
2013-02-27 07:02:00,35.0,34.0,29.72,NNW,348,1.0,3.0,98,0.00,,,1.49,,2013-02-27 12:02:00,
2013-02-27 07:13:00,35.0,34.0,29.72,NNW,348,1.0,3.0,98,0.00,,,1.49,,2013-02-27 12:13:00,
2013-02-27 07:22:00,35.0,34.0,29.72,North,5,1.0,2.0,98,0.00,,,1.39,,2013-02-27 12:22:00,
2013-02-27 07:33:00,36.0,35.0,29.74,SSE,166,1.0,3.0,98,0.00,,,1.39,,2013-02-27 12:33:00,
2013-02-27 07:42:00,36.0,35.0,29.74,SSE,166,1.0,3.0,98,0.00,,,1.39,,2013-02-27 12:42:00,
2013-02-27 07:53:00,36.0,35.0,29.74,SSE,166,1.0,3.0,98,0.00,,,1.39,,2013-02-27 12:53:00,
2013-02-27 08:02:00,36.0,35.0,29.75,SSW,203,2.0,3.0,98,0.00,,,1.39,,2013-02-27 13:02:00,
2013-02-27 08:11:00,36.0,35.0,29.75,SSW,203,2.0,3.0,98,0.00,,,1.39,,2013-02-27 13:11:00,
2013-02-27 08:22:00,37.0,36.0,29.76,WSW,246,2.0,6.0,97,0.00,,,1.24,,2013-02-27 13:22:00,
2013-02-27 08:32:00,38.0,37.0,29.77,WSW,252,4.0,7.0,96,0.00,,,1.24,,2013-02-27 13:32:00,
2013-02-27 08:42:00,38.0,37.0,29.77,WSW,252,4.0,7.0,96,0.00,,,1.24,,2013-02-27 13:42:00,
2013-02-27 08:52:00,40.0,38.0,29.77,WSW,257,3.0,4.0,94,0.00,,,1.24,,2013-02-27 13:52:00,
2013-02-27 09:02:00,42.0,39.0,29.78,WSW,250,5.0,8.0,88,0.00,,,1.24,,2013-02-27 14:02:00,
2013-02-27 09:12:00,42.0,39.0,29.78,WSW,250,5.0,8.0,88,0.00,,,1.24,,2013-02-27 14:12:00,
2013-02-27 09:22:00,42.0,37.0,29.78,West,261,3.0,6.0,83,0.00,,,1.24,,2013-02-27 14:22:00,
2013-02-27 09:32:00,42.0,37.0,29.78,West,261,3.0,6.0,83,0.00,,,1.24,,2013-02-27 14:32:00,
2013-02-27 09:42:00,42.0,37.0,29.78,West,261,3.0,6.0,83,0.00,,,1.24,,2013-02-27 14:42:00,
2013-02-27 09:52:00,42.0,37.0,29.78,West,261,3.0,6.0,83,0.00,,,1.24,,2013-02-27 14:52:00,
2013-02-27 10:23:00,46.0,35.0,29.78,WSW,257,7.0,11.0,65,0.00,,,0.91,,2013-02-27 15:23:00,
2013-02-27 10:32:00,46.0,35.0,29.79,SW,218,7.0,15.0,65,0.00,,,0.91,,2013-02-27 15:32:00,
2013-02-27 10:42:00,46.0,35.0,29.79,SW,218,7.0,15.0,65,0.00,,,0.91,,2013-02-27 15:42:00,
2013-02-27 10:52:00,47.0,35.0,29.79,SW,234,6.0,10.0,63,0.00,,,0.91,,2013-02-27 15:52:00,
2013-02-27 11:02:00,46.0,34.0,29.79,WSW,255,7.0,9.0,62,0.00,,,0.91,,2013-02-27 16:02:00,
2013-02-27 11:12:00,46.0,34.0,29.79,WSW,255,7.0,9.0,62,0.00,,,0.91,,2013-02-27 16:12:00,
2013-02-27 11:22:00,47.0,34.0,29.80,West,259,4.0,11.0,60,0.00,,,0.61,,2013-02-27 16:22:00,
2013-02-27 11:32:00,47.0,33.0,29.80,SW,232,5.0,10.0,58,0.00,,,0.61,,2013-02-27 16:32:00,
2013-02-27 11:42:00,47.0,33.0,29.80,SW,232,5.0,10.0,58,0.00,,,0.61,,2013-02-27 16:42:00,
2013-02-27 11:52:00,48.0,34.0,29.79,WNW,289,2.0,5.0,59,0.00,,,0.61,,2013-02-27 16:52:00,
2013-02-27 12:02:00,47.0,33.0,29.79,WNW,284,3.0,5.0,58,0.00,,,0.61,,2013-02-27 17:02:00,
2013-02-27 12:11:00,47.0,33.0,29.79,WNW,284,3.0,5.0,58,0.00,,,0.61,,2013-02-27 17:11:00,
2013-02-27 12:21:00,48.0,34.0,29.79,WSW,248,5.0,8.0,59,0.00,,,0.40,,2013-02-27 17:21:00,
2013-02-27 12:32:00,50.0,35.0,29.79,West,263,2.0,5.0,56,0.00,,,0.40,,2013-02-27 17:32:00,
2013-02-27 12:42:00,50.0,35.0,29.79,West,263,2.0,5.0,56,0.00,,,0.40,,2013-02-27 17:42:00,
2013-02-27 12:52:00,49.0,33.0,29.78,SE,130,5.0,9.0,53,0.00,,,0.40,,2013-02-27 17:52:00,
2013-02-27 13:02:00,50.0,34.0,29.78,WSW,257,4.0,7.0,53,0.00,,,0.40,,2013-02-27 18:02:00,
2013-02-27 13:11:00,50.0,34.0,29.78,WSW,257,4.0,7.0,53,0.00,,,0.40,,2013-02-27 18:11:00,
2013-02-27 13:22:00,50.0,34.0,29.77,SW,231,5.0,12.0,53,0.00,,,0.31,,2013-02-27 18:22:00,
2013-02-27 13:32:00,51.0,34.0,29.75,South,173,5.0,10.0,52,0.00,,,0.31,,2013-02-27 18:32:00,
2013-02-27 13:42:00,51.0,34.0,29.75,South,173,5.0,10.0,52,0.00,,,0.31,,2013-02-27 18:42:00,
2013-02-27 13:52:00,52.0,34.0,29.75,SW,232,4.0,10.0,50,0.00,,,0.31,,2013-02-27 18:52:00,
2013-02-27 14:01:00,52.0,34.0,29.75,West,275,5.0,8.0,51,0.00,,,0.31,,2013-02-27 19:01:00,
2013-02-27 14:12:00,52.0,34.0,29.75,West,275,5.0,8.0,51,0.00,,,0.31,,2013-02-27 19:12:00,
2013-02-27 14:21:00,53.0,36.0,29.74,SSW,206,3.0,11.0,52,0.00,,,0.23,,2013-02-27 19:21:00,
2013-02-27 14:32:00,53.0,35.0,29.73,WNW,290,4.0,9.0,50,0.00,,,0.23,,2013-02-27 19:32:00,
2013-02-27 14:42:00,53.0,35.0,29.73,WNW,290,4.0,9.0,50,0.00,,,0.23,,2013-02-27 19:42:00,
2013-02-27 14:52:00,54.0,35.0,29.73,SW,220,8.0,13.0,49,0.00,,,0.23,,2013-02-27 19:52:00,
2013-02-27 15:02:00,54.0,35.0,29.73,West,273,8.0,15.0,49,0.00,,,0.23,,2013-02-27 20:02:00,
2013-02-27 15:12:00,54.0,35.0,29.73,West,273,8.0,15.0,49,0.00,,,0.23,,2013-02-27 20:12:00,
2013-02-27 15:22:00,55.0,36.0,29.73,West,259,7.0,12.0,49,0.00,,,0.13,,2013-02-27 20:22:00,
2013-02-27 15:32:00,54.0,34.0,29.73,West,275,12.0,17.0,47,0.00,,,0.13,,2013-02-27 20:32:00,
2013-02-27 15:42:00,54.0,34.0,29.73,West,275,12.0,17.0,47,0.00,,,0.13,,2013-02-27 20:42:00,
2013-02-27 15:52:00,54.0,34.0,29.73,SW,232,8.0,13.0,47,0.00,,,0.13,,2013-02-27 20:52:00,
2013-02-27 16:02:00,54.0,35.0,29.73,SSW,201,7.0,11.0,49,0.00,,,0.13,,2013-02-27 21:02:00,
2013-02-27 16:11:00,54.0,35.0,29.73,SSW,201,7.0,11.0,49,0.00,,,0.13,,2013-02-27 21:11:00,
2013-02-27 16:22:00,54.0,36.0,29.73,SSW,197,6.0,15.0,51,0.00,,,0.01,,2013-02-27 21:22:00,
2013-02-27 16:32:00,53.0,37.0,29.73,SW,217,6.0,9.0,55,0.00,,,0.01,,2013-02-27 21:32:00,
2013-02-27 16:42:00,53.0,37.0,29.73,SW,217,6.0,9.0,55,0.00,,,0.01,,2013-02-27 21:42:00,
2013-02-27 16:52:00,53.0,37.0,29.73,South,175,6.0,11.0,55,0.00,,,0.01,,2013-02-27 21:52:00,
2013-02-27 17:02:00,53.0,37.0,29.73,SW,234,7.0,12.0,54,0.00,,,0.01,,2013-02-27 22:02:00,
2013-02-27 17:11:00,53.0,37.0,29.73,SW,234,7.0,12.0,54,0.00,,,0.01,,2013-02-27 22:11:00,
2013-02-27 17:21:00,53.0,36.0,29.72,WSW,252,9.0,14.0,53,0.00,,,0.00,,2013-02-27 22:21:00,
2013-02-27 17:32:00,53.0,36.0,29.72,South,184,4.0,9.0,53,0.00,,,0.00,,2013-02-27 22:32:00,
2013-02-27 17:42:00,53.0,36.0,29.72,South,184,4.0,9.0,53,0.00,,,0.00,,2013-02-27 22:42:00,
2013-02-27 17:52:00,54.0,37.0,29.72,SW,221,3.0,6.0,53,0.00,,,0.00,,2013-02-27 22:52:00,
2013-02-27 18:01:00,53.0,37.0,29.72,South,177,2.0,6.0,55,0.00,,,0.00,,2013-02-27 23:01:00,
2013-02-27 18:11:00,53.0,37.0,29.72,South,177,2.0,6.0,55,0.00,,,0.00,,2013-02-27 23:11:00,
2013-02-27 18:21:00,51.0,36.0,29.73,SSW,208,4.0,8.0,57,0.00,,,0.00,,2013-02-27 23:21:00,
2013-02-27 18:32:00,51.0,37.0,29.73,SSW,208,2.0,4.0,59,0.00,,,0.00,,2013-02-27 23:32:00,
2013-02-27 18:42:00,51.0,37.0,29.73,SSW,208,2.0,4.0,59,0.00,,,0.00,,2013-02-27 23:42:00,
2013-02-27 18:53:00,50.0,37.0,29.73,SSE,164,2.0,3.0,60,0.00,,,0.00,,2013-02-27 23:53:00,
2013-02-27 19:02:00,50.0,37.0,29.73,SSW,202,1.0,4.0,61,0.00,,,0.00,,2013-02-28 00:02:00,
2013-02-27 19:12:00,50.0,37.0,29.73,SSW,202,1.0,4.0,61,0.00,,,0.00,,2013-02-28 00:12:00,
2013-02-27 19:21:00,49.0,37.0,29.73,SSW,194,1.0,2.0,62,0.00,,,0.00,,2013-02-28 00:21:00,
2013-02-27 19:32:00,48.0,36.0,29.73,SSW,194,0.0,2.0,64,0.00,,,0.00,,2013-02-28 00:32:00,
2013-02-27 19:42:00,48.0,36.0,29.73,SSW,194,0.0,2.0,64,0.00,,,0.00,,2013-02-28 00:42:00,
2013-02-27 19:52:00,47.0,36.0,29.73,SW,233,1.0,3.0,66,0.00,,,0.00,,2013-02-28 00:52:00,
2013-02-27 20:01:00,46.0,36.0,29.73,WSW,254,2.0,5.0,68,0.00,,,0.00,,2013-02-28 01:01:00,
2013-02-27 20:11:00,46.0,36.0,29.73,WSW,254,2.0,5.0,68,0.00,,,0.00,,2013-02-28 01:11:00,
2013-02-27 20:22:00,46.0,36.0,29.74,West,265,4.0,6.0,69,0.00,,,0.00,,2013-02-28 01:22:00,
2013-02-27 20:32:00,45.0,38.0,29.76,WNW,303,4.0,6.0,75,0.00,,,0.00,,2013-02-28 01:32:00,
2013-02-27 20:42:00,45.0,38.0,29.76,WNW,303,4.0,6.0,75,0.00,,,0.00,,2013-02-28 01:42:00,
2013-02-27 20:52:00,45.0,40.0,29.75,WSW,241,3.0,8.0,81,0.01,,,0.01,,2013-02-28 01:52:00,
2013-02-27 21:01:00,45.0,39.0,29.75,NW,307,0.0,3.0,80,0.01,,,0.01,,2013-02-28 02:01:00,
2013-02-27 21:11:00,45.0,39.0,29.75,NW,307,0.0,3.0,80,0.01,,,0.01,,2013-02-28 02:11:00,
2013-02-27 21:22:00,44.0,40.0,29.75,NW,321,1.0,3.0,85,0.01,,,0.01,,2013-02-28 02:22:00,
2013-02-27 21:32:00,44.0,40.0,29.75,NNE,30,1.0,3.0,86,0.01,,,0.01,,2013-02-28 02:32:00,
2013-02-27 21:41:00,44.0,40.0,29.75,NNE,30,1.0,3.0,86,0.01,,,0.01,,2013-02-28 02:41:00,
2013-02-27 21:52:00,44.0,40.0,29.75,NNE,30,1.0,3.0,86,0.01,,,0.01,,2013-02-28 02:52:00,
2013-02-27 22:01:00,45.0,38.0,29.75,SW,229,1.0,2.0,77,0.00,,,0.01,,2013-02-28 03:01:00,
2013-02-27 22:11:00,45.0,38.0,29.75,SW,229,1.0,2.0,77,0.00,,,0.01,,2013-02-28 03:11:00,
2013-02-27 22:21:00,43.0,38.0,29.75,West,271,0.0,2.0,82,0.01,,,0.02,,2013-02-28 03:21:00,
2013-02-27 22:32:00,42.0,37.0,29.76,WNW,303,2.0,9.0,82,0.01,,,0.02,,2013-02-28 03:32:00,
2013-02-27 22:42:00,42.0,37.0,29.76,WNW,303,2.0,9.0,82,0.01,,,0.02,,2013-02-28 03:42:00,
2013-02-27 22:52:00,45.0,35.0,29.76,WNW,298,2.0,6.0,69,0.01,,,0.02,,2013-02-28 03:52:00,
2013-02-27 23:02:00,45.0,35.0,29.76,WNW,284,4.0,8.0,67,0.01,,,0.02,,2013-02-28 04:02:00,
2013-02-27 23:11:00,45.0,35.0,29.76,WNW,284,4.0,8.0,67,0.01,,,0.02,,2013-02-28 04:11:00,
2013-02-27 23:22:00,45.0,34.0,29.76,WNW,303,3.0,6.0,66,0.00,,,0.02,,2013-02-28 04:22:00,
2013-02-27 23:32:00,44.0,34.0,29.76,WNW,282,3.0,5.0,67,0.00,,,0.02,,2013-02-28 04:32:00,
2013-02-27 23:42:00,44.0,34.0,29.76,WNW,282,3.0,5.0,67,0.00,,,0.02,,2013-02-28 04:42:00,
2013-02-27 23:52:00,43.0,34.0,29.75,NW,323,1.0,3.0,69,0.00,,,0.02,,2013-02-28 04:52:00,